Terminal Aerodrome Forecast
Issued by NWS

Home | Current Version | Previous Version | Text Only | Print | Product List | Glossary On
Versions: 1 2 3 4 5 6 7 8 9 10 11 12 13 14 15 16 17 18 19 20
976
FTPA31 PHFO 241449 AAD
TAFHKO
TAF AMD
PHKO 241449Z 2415/2512 VRB05KT P6SM VCSH SCT020 BKN035
      TEMPO 2415/2418 5SM -SHRA BKN020 OVC035
     FM242200 24010KT P6SM VCSH SCT030 BKN060
     FM250200 19010KT P6SM VCSH SCT030 BKN050
     FM251000 06006KT P6SM FEW030 SCT050=

USA.gov is the U.S. government's official web portal to all federal, state and local government web resources and services.